Station Historical Data
 
Daily Summary for February 25, 2018 Units:  English    Metric   Both
« Previous Day
Next Day »
Daily Weekly Monthly Yearly Custom
  Current: High: Low: Average:
Temperature: 45.0 °F TemperatureF °F 41.8 °F 43.7 °F
Dew Point: 44.2 °F DewpointF °F 41.0 °F 42.9 °F
Humidity: 97% Humidity% 95% 96%
Wind Speed: 0.0mph WindSpeedMPHmph 0.0mph 3.6mph
Wind Gust: 9.2mph WindSpeedGustMPHmph - -
WindCalm - - ESE
Pressure: 29.96 in PressureIn in 29.89 in -
Precipitation: 0.75 in      
Historical Graphs
 
 
Tabular Data for February 25, 2018
Time Temperature Dew Point Pressure Wind Wind Speed Wind Gust Humidity Rainfall Rate (Hourly) solar Conditions
TemperatureF °F DewpointF °F PressureIn in Calm     Humidity% HourlyPrecipIn in SoftwareType W/m2 Conditions
00:02 44.1 °F 42.8 °F 30.15 in NE 2.0 mph 22.0 mph 95% 0.00 in WeatherDisplay:10.37 W/m2 RA
00:07 44.1 °F 42.8 °F 30.14 in ENE 2.9 mph 22.0 mph 95% 0.00 in WeatherDisplay:10.37 W/m2 RA
00:12 44.1 °F 42.8 °F 30.14 in ENE 2.4 mph 22.0 mph 95% 0.00 in WeatherDisplay:10.37 W/m2 OVC
00:17 44.0 °F 42.7 °F 30.13 in ENE 5.0 mph 22.0 mph 95% 0.00 in WeatherDisplay:10.37 W/m2 OVC
00:22 44.0 °F 42.7 °F 30.13 in ENE 2.8 mph 22.0 mph 95% 0.00 in WeatherDisplay:10.37 W/m2 OVC
00:27 43.9 °F 42.6 °F 30.13 in East 4.0 mph 22.0 mph 95% 0.00 in WeatherDisplay:10.37 W/m2 OVC
00:32 43.8 °F 42.5 °F 30.13 in East 4.4 mph 22.0 mph 95% 0.00 in WeatherDisplay:10.37 W/m2 OVC
00:37 43.8 °F 42.5 °F 30.13 in ENE 3.3 mph 22.0 mph 95% 0.00 in WeatherDisplay:10.37 W/m2 OVC
00:42 43.7 °F 42.4 °F 30.13 in ENE 4.2 mph 22.0 mph 95% 0.00 in WeatherDisplay:10.37 W/m2 OVC
00:47 43.7 °F 42.4 °F 30.13 in East 3.9 mph 22.0 mph 95% 0.00 in WeatherDisplay:10.37 W/m2 OVC
00:52 43.7 °F 42.4 °F 30.13 in East 1.5 mph 22.0 mph 95% 0.00 in WeatherDisplay:10.37 W/m2 OVC
00:57 43.7 °F 42.4 °F 30.13 in ENE 3.1 mph 22.0 mph 95% 0.00 in WeatherDisplay:10.37 W/m2 OVC
01:02 43.7 °F 42.4 °F 30.13 in East 3.6 mph 22.0 mph 95% 0.00 in WeatherDisplay:10.37 W/m2 OVC
01:07 43.7 °F 42.4 °F 30.12 in ENE 3.4 mph 22.0 mph 95% 0.00 in WeatherDisplay:10.37 W/m2 OVC
01:12 43.7 °F 42.4 °F 30.11 in East 3.1 mph 22.0 mph 95% 0.00 in WeatherDisplay:10.37 W/m2 OVC
01:17 43.6 °F 42.5 °F 30.11 in ENE 3.5 mph 22.0 mph 96% 0.00 in WeatherDisplay:10.37 W/m2 OVC
01:22 43.6 °F 42.5 °F 30.11 in East 3.9 mph 22.0 mph 96% 0.00 in WeatherDisplay:10.37 W/m2 OVC
01:27 43.6 °F 42.5 °F 30.11 in East 4.4 mph 22.0 mph 96% 0.00 in WeatherDisplay:10.37 W/m2 OVC
01:32 43.6 °F 42.5 °F 30.11 in ENE 1.9 mph 22.0 mph 96% 0.00 in WeatherDisplay:10.37 W/m2 OVC
01:37 43.6 °F 42.5 °F 30.11 in East 4.4 mph 22.0 mph 96% 0.00 in WeatherDisplay:10.37 W/m2 OVC
01:42 43.7 °F 42.6 °F 30.11 in ESE 2.5 mph 22.0 mph 96% 0.00 in WeatherDisplay:10.37 W/m2 OVC
01:47 43.7 °F 42.6 °F 30.11 in East 3.7 mph 22.0 mph 96% 0.00 in WeatherDisplay:10.37 W/m2 OVC
01:52 43.7 °F 42.6 °F 30.10 in NE 3.7 mph 22.0 mph 96% 0.00 in WeatherDisplay:10.37 W/m2 OVC
01:57 43.7 °F 42.6 °F 30.10 in ESE 3.8 mph 22.0 mph 96% 0.01 in WeatherDisplay:10.37 W/m2 RA
02:02 43.7 °F 42.6 °F 30.09 in ESE 3.4 mph 22.0 mph 96% 0.03 in WeatherDisplay:10.37 W/m2 -RA
02:07 43.7 °F 42.6 °F 30.10 in East 2.1 mph 22.0 mph 96% 0.04 in WeatherDisplay:10.37 W/m2 -RA
02:12 43.7 °F 42.6 °F 30.10 in East 3.7 mph 22.0 mph 96% 0.06 in WeatherDisplay:10.37 W/m2 -RA
02:17 43.7 °F 42.6 °F 30.09 in East 3.9 mph 22.0 mph 96% 0.06 in WeatherDisplay:10.37 W/m2 -RA
02:22 43.7 °F 42.6 °F 30.09 in ESE 3.2 mph 22.0 mph 96% 0.07 in WeatherDisplay:10.37 W/m2 -RA
02:27 43.7 °F 42.6 °F 30.08 in East 3.8 mph 22.0 mph 96% 0.07 in WeatherDisplay:10.37 W/m2 -RA
02:32 43.8 °F 43.0 °F 30.07 in ESE 3.9 mph 22.0 mph 97% 0.09 in WeatherDisplay:10.37 W/m2 RA
02:37 43.8 °F 43.0 °F 30.07 in ESE 3.3 mph 22.0 mph 97% 0.11 in WeatherDisplay:10.37 W/m2 RA
02:42 43.8 °F 43.0 °F 30.07 in ESE 3.4 mph 22.0 mph 97% 0.11 in WeatherDisplay:10.37 W/m2 RA
02:47 43.8 °F 43.0 °F 30.06 in ESE 6.1 mph 22.0 mph 97% 0.12 in WeatherDisplay:10.37 W/m2 RA
02:50 43.8 °F 43.0 °F 30.05 in SE 2.5 mph 22.0 mph 97% 0.12 in WeatherDisplay:10.37 W/m2 RA
02:55 43.9 °F 43.1 °F 30.05 in East 7.4 mph 22.0 mph 97% 0.12 in WeatherDisplay:10.37 W/m2 RA
03:00 43.9 °F 43.1 °F 30.06 in ESE 5.1 mph 22.0 mph 97% 0.10 in WeatherDisplay:10.37 W/m2 OVC
03:05 43.9 °F 43.1 °F 30.06 in ENE 7.4 mph 22.0 mph 97% 0.08 in WeatherDisplay:10.37 W/m2 -RA
03:10 44.0 °F 43.2 °F 30.05 in ESE 5.5 mph 22.0 mph 97% 0.07 in WeatherDisplay:10.37 W/m2 -RA
03:15 44.0 °F 43.2 °F 30.05 in SSE 11.2 mph 22.0 mph 97% 0.06 in WeatherDisplay:10.37 W/m2 -RA
03:20 44.1 °F 43.3 °F 30.05 in ESE 5.6 mph 22.0 mph 97% 0.07 in WeatherDisplay:10.37 W/m2 -RA
03:25 44.1 °F 43.3 °F 30.04 in ESE 9.8 mph 22.0 mph 97% 0.06 in WeatherDisplay:10.37 W/m2 -RA
03:31 44.1 °F 43.3 °F 30.05 in ESE 7.0 mph 22.0 mph 97% 0.10 in WeatherDisplay:10.37 W/m2 -RA
03:36 44.1 °F 43.3 °F 30.05 in ESE 6.4 mph 22.0 mph 97% 0.09 in WeatherDisplay:10.37 W/m2 -RA
03:41 44.1 °F 43.3 °F 30.04 in East 6.8 mph 22.0 mph 97% 0.09 in WeatherDisplay:10.37 W/m2 -RA
03:46 44.2 °F 43.4 °F 30.04 in SE 7.6 mph 22.0 mph 97% 0.10 in WeatherDisplay:10.37 W/m2 -RA
03:51 44.2 °F 43.4 °F 30.04 in ESE 9.2 mph 22.0 mph 97% 0.10 in WeatherDisplay:10.37 W/m2 +RA
03:56 44.2 °F 43.4 °F 30.04 in ESE 8.2 mph 22.0 mph 97% 0.10 in WeatherDisplay:10.37 W/m2 +RA
04:01 44.2 °F 43.4 °F 30.04 in SE 8.4 mph 22.0 mph 97% 0.11 in WeatherDisplay:10.37 W/m2 RA
04:06 44.2 °F 43.4 °F 30.05 in SE 5.7 mph 22.0 mph 97% 0.15 in WeatherDisplay:10.37 W/m2 RA
04:11 44.1 °F 43.3 °F 30.04 in ESE 7.6 mph 22.0 mph 97% 0.15 in WeatherDisplay:10.37 W/m2 RA
04:16 44.1 °F 43.3 °F 30.05 in ESE 3.5 mph 22.0 mph 97% 0.16 in WeatherDisplay:10.37 W/m2 +RA
04:21 44.1 °F 43.3 °F 30.04 in East 5.2 mph 22.0 mph 97% 0.16 in WeatherDisplay:10.37 W/m2 +RA
04:26 44.0 °F 43.2 °F 30.04 in ENE 7.5 mph 22.0 mph 97% 0.15 in WeatherDisplay:10.37 W/m2 +RA
04:31 43.8 °F 43.0 °F 30.04 in SE 7.1 mph 22.0 mph 97% 0.12 in WeatherDisplay:10.37 W/m2 -RA
04:36 43.8 °F 43.0 °F 30.04 in SE 8.4 mph 22.0 mph 97% 0.10 in WeatherDisplay:10.37 W/m2 -RA
04:41 43.7 °F 42.9 °F 30.04 in ESE 8.7 mph 22.0 mph 97% 0.11 in WeatherDisplay:10.37 W/m2 -RA
04:46 43.7 °F 42.9 °F 30.04 in SE 5.6 mph 22.0 mph 97% 0.12 in WeatherDisplay:10.37 W/m2 -RA
04:51 43.6 °F 42.8 °F 30.04 in ESE 4.4 mph 22.0 mph 97% 0.13 in WeatherDisplay:10.37 W/m2 -RA
04:56 43.6 °F 42.8 °F 30.05 in ESE 4.9 mph 22.0 mph 97% 0.15 in WeatherDisplay:10.37 W/m2 -RA
05:01 43.6 °F 42.8 °F 30.04 in ENE 5.9 mph 22.0 mph 97% 0.15 in WeatherDisplay:10.37 W/m2 RA
05:06 43.6 °F 42.8 °F 30.05 in ESE 6.4 mph 22.0 mph 97% 0.13 in WeatherDisplay:10.37 W/m2 RA
05:11 43.6 °F 42.8 °F 30.04 in NE 3.1 mph 22.0 mph 97% 0.15 in WeatherDisplay:10.37 W/m2 RA
05:16 43.5 °F 42.7 °F 30.04 in ENE 5.3 mph 22.0 mph 97% 0.15 in WeatherDisplay:10.37 W/m2 RA
05:21 43.5 °F 42.7 °F 30.04 in East 5.0 mph 22.0 mph 97% 0.15 in WeatherDisplay:10.37 W/m2 RA
05:26 43.5 °F 42.7 °F 30.03 in East 4.8 mph 22.0 mph 97% 0.15 in WeatherDisplay:10.37 W/m2 RA
05:31 43.4 °F 42.6 °F 30.04 in East 5.7 mph 22.0 mph 97% 0.15 in WeatherDisplay:10.37 W/m2 -RA
05:36 43.3 °F 42.5 °F 30.04 in East 6.0 mph 22.0 mph 97% 0.16 in WeatherDisplay:10.37 W/m2 -RA
05:41 43.3 °F 42.5 °F 30.03 in East 7.1 mph 22.0 mph 97% 0.16 in WeatherDisplay:10.37 W/m2 -RA
05:46 43.2 °F 42.4 °F 30.03 in ENE 6.5 mph 22.0 mph 97% 0.16 in WeatherDisplay:10.37 W/m2 -RA
05:51 43.2 °F 42.4 °F 30.03 in SE 3.2 mph 22.0 mph 97% 0.15 in WeatherDisplay:10.37 W/m2 -RA
05:56 43.1 °F 42.3 °F 30.03 in ENE 7.6 mph 22.0 mph 97% 0.13 in WeatherDisplay:10.37 W/m2 -RA
06:01 43.1 °F 42.3 °F 30.03 in NE 5.9 mph 22.0 mph 97% 0.12 in WeatherDisplay:10.37 W/m2 OVC
06:06 43.1 °F 42.3 °F 30.03 in SE 4.5 mph 22.0 mph 97% 0.11 in WeatherDisplay:10.37 W/m2 RA
06:11 43.0 °F 42.2 °F 30.03 in East 3.5 mph 22.0 mph 97% 0.09 in WeatherDisplay:10.37 W/m2 RA
06:16 43.0 °F 42.2 °F 30.02 in ENE 4.6 mph 22.0 mph 97% 0.13 in WeatherDisplay:10.37 W/m2 RA
06:21 42.9 °F 42.1 °F 30.02 in East 3.3 mph 22.0 mph 97% 0.13 in WeatherDisplay:10.37 W/m2 RA
06:26 42.9 °F 42.1 °F 30.01 in ENE 8.7 mph 22.0 mph 97% 0.13 in WeatherDisplay:10.37 W/m2 RA
06:31 42.8 °F 42.0 °F 30.01 in East 2.9 mph 22.0 mph 97% 0.13 in WeatherDisplay:10.37 W/m2 RA
06:36 42.8 °F 42.0 °F 30.01 in ENE 5.2 mph 22.0 mph 97% 0.12 in WeatherDisplay:10.37 W/m2 RA
06:41 42.8 °F 42.0 °F 30.02 in East 8.1 mph 22.0 mph 97% 0.11 in WeatherDisplay:10.37 W/m2 OVC
06:46 42.7 °F 41.9 °F 30.02 in East 5.2 mph 22.0 mph 97% 0.09 in WeatherDisplay:10.37 W/m2 OVC
06:51 42.7 °F 42.2 °F 30.01 in ESE 5.3 mph 22.0 mph 98% 0.08 in WeatherDisplay:10.37 W/m2 OVC
06:56 42.7 °F 42.2 °F 30.01 in ENE 4.8 mph 22.0 mph 98% 0.08 in WeatherDisplay:10.37 W/m2 OVC
07:01 42.5 °F 41.7 °F 30.01 in East 4.3 mph 22.0 mph 97% 0.08 in WeatherDisplay:10.37 W/m2 OVC
07:06 42.4 °F 41.6 °F 30.00 in ENE 5.2 mph 22.0 mph 97% 0.08 in WeatherDisplay:10.37 W/m2 RA
07:11 42.3 °F 41.5 °F 30.00 in ENE 5.3 mph 22.0 mph 97% 0.08 in WeatherDisplay:10.37 W/m2 RA
07:16 42.2 °F 41.4 °F 30.00 in SE 7.0 mph 22.0 mph 97% 0.04 in WeatherDisplay:10.37 W/m2 RA
07:21 42.2 °F 41.4 °F 30.00 in ESE 4.2 mph 22.0 mph 97% 0.03 in WeatherDisplay:10.37 W/m2 RA
07:26 42.1 °F 41.3 °F 30.00 in East 5.6 mph 22.0 mph 97% 0.03 in WeatherDisplay:10.37 W/m2 OVC
07:31 42.1 °F 41.3 °F 30.00 in East 6.5 mph 22.0 mph 97% 0.03 in WeatherDisplay:10.37 W/m2 RA
07:36 42.0 °F 41.2 °F 30.01 in ESE 4.5 mph 22.0 mph 97% 0.03 in WeatherDisplay:10.37 W/m2 RA
07:41 42.0 °F 41.2 °F 30.00 in ESE 5.3 mph 22.0 mph 97% 0.04 in WeatherDisplay:10.37 W/m2 RA
07:46 42.0 °F 41.2 °F 30.00 in East 8.9 mph 22.0 mph 97% 0.04 in WeatherDisplay:10.37 W/m2 RA
07:51 41.9 °F 41.1 °F 30.00 in ESE 2.7 mph 22.0 mph 97% 0.04 in WeatherDisplay:10.37 W/m2 OVC
07:56 41.9 °F 41.1 °F 30.00 in East 6.2 mph 22.0 mph 97% 0.04 in WeatherDisplay:10.37 W/m2 OVC
08:01 41.8 °F 41.0 °F 30.00 in ENE 5.6 mph 22.0 mph 97% 0.05 in WeatherDisplay:10.37 W/m2 -RA
08:06 41.8 °F 41.0 °F 30.00 in East 3.4 mph 22.0 mph 97% 0.05 in WeatherDisplay:10.37 W/m2 -RA
08:11 41.8 °F 41.0 °F 29.99 in East 5.3 mph 22.0 mph 97% 0.05 in WeatherDisplay:10.37 W/m2 -RA
08:16 41.9 °F 41.1 °F 29.99 in SE 3.9 mph 22.0 mph 97% 0.04 in WeatherDisplay:10.37 W/m2 OVC
08:21 41.8 °F 41.0 °F 29.99 in East 4.1 mph 22.0 mph 97% 0.04 in WeatherDisplay:10.37 W/m2 OVC
08:26 41.9 °F 41.1 °F 29.99 in East 5.3 mph 22.0 mph 97% 0.05 in WeatherDisplay:10.37 W/m2 RA
08:31 42.0 °F 41.5 °F 29.98 in East 3.7 mph 22.0 mph 98% 0.04 in WeatherDisplay:10.37 W/m2 -RA
08:36 41.9 °F 41.4 °F 29.98 in ESE 3.8 mph 22.0 mph 98% 0.05 in WeatherDisplay:10.37 W/m2 -RA
08:41 42.0 °F 41.2 °F 29.98 in ESE 5.9 mph 22.0 mph 97% 0.04 in WeatherDisplay:10.37 W/m2 -RA
08:46 42.0 °F 41.2 °F 29.98 in SE 5.0 mph 22.0 mph 97% 0.04 in WeatherDisplay:10.37 W/m2 -RA
08:51 42.0 °F 41.5 °F 29.97 in ENE 3.9 mph 22.0 mph 98% 0.04 in WeatherDisplay:10.37 W/m2 -RA
08:56 42.1 °F 41.6 °F 29.98 in SE 2.8 mph 22.0 mph 98% 0.05 in WeatherDisplay:10.37 W/m2 -RA
09:01 42.1 °F 41.6 °F 29.97 in East 4.6 mph 22.0 mph 98% 0.04 in WeatherDisplay:10.37 W/m2 -RA
09:06 42.1 °F 41.6 °F 29.98 in SW 2.4 mph 22.0 mph 98% 0.03 in WeatherDisplay:10.37 W/m2 -RA
09:11 42.2 °F 41.7 °F 29.98 in East 3.7 mph 22.0 mph 98% 0.03 in WeatherDisplay:10.37 W/m2 -RA
09:16 42.3 °F 41.8 °F 30.02 in WSW 8.1 mph 22.0 mph 98% 0.03 in WeatherDisplay:10.37 W/m2 -RA
09:21 42.4 °F 41.9 °F 30.02 in West 4.8 mph 22.0 mph 98% 0.05 in WeatherDisplay:10.37 W/m2 -RA
09:26 42.5 °F 42.0 °F 30.00 in ENE 4.5 mph 22.0 mph 98% 0.05 in WeatherDisplay:10.37 W/m2 -RA
09:31 42.5 °F 42.0 °F 30.01 in WNW 0.6 mph 22.0 mph 98% 0.07 in WeatherDisplay:10.37 W/m2 -RA
09:36 42.7 °F 42.2 °F 30.00 in NE 2.0 mph 22.0 mph 98% 0.08 in WeatherDisplay:10.37 W/m2 -RA
09:41 42.7 °F 42.2 °F 29.99 in NE 1.5 mph 22.0 mph 98% 0.08 in WeatherDisplay:10.37 W/m2 -RA
12:11 44.6 °F 44.1 °F 29.91 in ESE 6.5 mph 8.1 mph 98% 0.08 in WeatherDisplay:10.37 W/m2 RA
12:16 44.6 °F 44.1 °F 29.93 in NNE 2.9 mph 8.1 mph 98% 0.09 in WeatherDisplay:10.37 W/m2 RA
12:21 44.6 °F 44.1 °F 29.94 in East 2.1 mph 8.1 mph 98% 0.08 in WeatherDisplay:10.37 W/m2 -RA
12:26 44.6 °F 44.1 °F 29.92 in ESE 3.3 mph 8.1 mph 98% 0.08 in WeatherDisplay:10.37 W/m2 -RA
12:31 44.8 °F 44.3 °F 29.89 in SE 6.1 mph 9.0 mph 98% 0.08 in WeatherDisplay:10.37 W/m2 -RA
12:36 44.8 °F 44.0 °F 29.93 in NNW 1.6 mph 9.2 mph 97% 0.08 in WeatherDisplay:10.37 W/m2 -RA
12:41 44.9 °F 44.1 °F 29.96 in WNW 3.2 mph 9.2 mph 97% 0.08 in WeatherDisplay:10.37 W/m2 -RA
12:46 44.9 °F 44.1 °F 29.94 in NNE 3.2 mph 9.2 mph 97% 0.06 in WeatherDisplay:10.37 W/m2 -RA
12:51 44.8 °F 44.0 °F 29.95 in NW 4.3 mph 9.2 mph 97% 0.04 in WeatherDisplay:10.37 W/m2 -RA
12:56 44.9 °F 44.1 °F 29.97 in NW 2.4 mph 9.2 mph 97% 0.02 in WeatherDisplay:10.37 W/m2 -RA
13:01 44.8 °F 44.0 °F 29.95 in NW 0.5 mph 9.2 mph 97% 0.01 in WeatherDisplay:10.37 W/m2 -RA
13:06 44.8 °F 44.0 °F 29.94 in NW 1.6 mph 9.2 mph 97% 0.01 in WeatherDisplay:10.37 W/m2 -RA
13:11 44.9 °F 44.1 °F 29.94 in NW 0.3 mph 9.2 mph 97% 0.01 in WeatherDisplay:10.37 W/m2 -RA
13:16 44.9 °F 44.1 °F 29.94 in ENE 0.8 mph 9.2 mph 97% 0.00 in WeatherDisplay:10.37 W/m2 -RA
13:21 45.0 °F 44.2 °F 29.92 in ENE 3.0 mph 9.2 mph 97% 0.00 in WeatherDisplay:10.37 W/m2 -RA
13:26 45.0 °F 44.2 °F 29.93 in North 1.9 mph 9.2 mph 97% 0.00 in WeatherDisplay:10.37 W/m2 -RA
13:31 45.0 °F 44.2 °F 29.93 in ENE 2.8 mph 9.2 mph 97% 0.00 in WeatherDisplay:10.37 W/m2 -RA
13:36 44.9 °F 44.1 °F 29.92 in ENE 3.9 mph 9.2 mph 97% 0.00 in WeatherDisplay:10.37 W/m2 -RA
13:41 44.9 °F 44.1 °F 29.92 in Calm   9.2 mph 97% 0.00 in WeatherDisplay:10.37 W/m2 -RA
13:46 45.0 °F 44.2 °F 29.92 in ESE 1.7 mph 9.2 mph 97% 0.00 in WeatherDisplay:10.37 W/m2 -RA
13:51 45.1 °F 44.3 °F 29.92 in ESE 1.8 mph 9.2 mph 97% 0.00 in WeatherDisplay:10.37 W/m2 -RA
13:56 45.1 °F 44.3 °F 29.93 in ESE 1.5 mph 9.2 mph 97% 0.00 in WeatherDisplay:10.37 W/m2 -RA
14:01 45.1 °F 44.3 °F 29.92 in ESE 0.6 mph 9.2 mph 97% 0.00 in WeatherDisplay:10.37 W/m2 OVC
14:06 45.2 °F 44.4 °F 29.92 in Calm   9.2 mph 97% 0.00 in WeatherDisplay:10.37 W/m2 OVC
14:11 45.2 °F 44.4 °F 29.92 in NNE 3.2 mph 9.2 mph 97% 0.00 in WeatherDisplay:10.37 W/m2 OVC
14:16 45.1 °F 44.3 °F 29.91 in ENE 1.6 mph 9.2 mph 97% 0.00 in WeatherDisplay:10.37 W/m2 OVC
14:21 45.0 °F 44.2 °F 29.92 in ENE 2.7 mph 9.2 mph 97% 0.00 in WeatherDisplay:10.37 W/m2 OVC
14:26 44.8 °F 44.0 °F 29.93 in ENE 3.0 mph 9.2 mph 97% 0.00 in WeatherDisplay:10.37 W/m2 OVC
14:31 44.8 °F 44.0 °F 29.92 in ENE 1.0 mph 9.2 mph 97% 0.00 in WeatherDisplay:10.37 W/m2 OVC
14:36 44.7 °F 43.9 °F 29.92 in ENE 2.7 mph 9.2 mph 97% 0.00 in WeatherDisplay:10.37 W/m2 OVC
14:41 44.7 °F 43.9 °F 29.93 in ENE 1.5 mph 9.2 mph 97% 0.00 in WeatherDisplay:10.37 W/m2 OVC
14:46 44.8 °F 44.0 °F 29.93 in ENE 1.2 mph 9.2 mph 97% 0.00 in WeatherDisplay:10.37 W/m2 OVC
14:51 44.9 °F 44.1 °F 29.94 in ENE 1.3 mph 9.2 mph 97% 0.00 in WeatherDisplay:10.37 W/m2 OVC
14:56 44.9 °F 44.1 °F 29.95 in Calm   9.2 mph 97% 0.00 in WeatherDisplay:10.37 W/m2 OVC
15:01 44.9 °F 44.1 °F 29.95 in ENE 1.5 mph 9.2 mph 97% 0.00 in WeatherDisplay:10.37 W/m2 OVC
15:06 44.9 °F 44.1 °F 29.95 in ENE 2.4 mph 9.2 mph 97% 0.00 in WeatherDisplay:10.37 W/m2 OVC
15:11 45.0 °F 44.2 °F 29.96 in ENE 0.1 mph 9.2 mph 97% 0.00 in WeatherDisplay:10.37 W/m2 OVC
15:16 45.0 °F 44.2 °F 29.95 in ENE 1.5 mph 9.2 mph 97% 0.00 in WeatherDisplay:10.37 W/m2 OVC
15:21 45.0 °F 44.2 °F 29.95 in ENE 1.9 mph 9.2 mph 97% 0.00 in WeatherDisplay:10.37 W/m2 OVC
15:26 45.0 °F 44.2 °F 29.94 in ENE 1.3 mph 9.2 mph 97% 0.00 in WeatherDisplay:10.37 W/m2 OVC
15:31 44.9 °F 44.1 °F 29.94 in ENE 0.8 mph 9.2 mph 97% 0.00 in WeatherDisplay:10.37 W/m2 OVC
15:36 45.0 °F 44.2 °F 29.94 in ENE 1.9 mph 9.2 mph 97% 0.00 in WeatherDisplay:10.37 W/m2 OVC
15:41 45.0 °F 44.2 °F 29.96 in NW 3.9 mph 9.2 mph 97% 0.00 in WeatherDisplay:10.37 W/m2 OVC
15:46 45.0 °F 44.2 °F 29.96 in North 3.3 mph 9.2 mph 97% 0.00 in WeatherDisplay:10.37 W/m2 OVC
15:51 45.0 °F 44.2 °F 29.96 in NNW 3.2 mph 9.2 mph 97% 0.00 in WeatherDisplay:10.37 W/m2 OVC
15:56 45.0 °F 44.2 °F 29.96 in North 2.3 mph 9.2 mph 97% 0.00 in WeatherDisplay:10.37 W/m2 OVC
16:01 44.9 °F 44.1 °F 29.96 in North 3.1 mph 9.2 mph 97% 0.00 in WeatherDisplay:10.37 W/m2 OVC
16:06 44.9 °F 44.1 °F 29.95 in North 1.7 mph 9.2 mph 97% 0.00 in WeatherDisplay:10.37 W/m2 OVC
16:11 45.0 °F 44.2 °F 29.96 in Calm   9.2 mph 97% 0.00 in WeatherDisplay:10.37 W/m2 OVC
16:16 45.0 °F 44.2 °F 29.95 in ESE 2.2 mph 9.2 mph 97% 0.00 in WeatherDisplay:10.37 W/m2 OVC
16:21 45.0 °F 44.2 °F 29.97 in ESE 1.1 mph 9.2 mph 97% 0.00 in WeatherDisplay:10.37 W/m2 OVC
16:27 45.0 °F 44.2 °F 29.97 in Calm   9.2 mph 97% 0.00 in WeatherDisplay:10.37 W/m2 OVC
16:32 45.0 °F 44.2 °F 29.95 in ESE 1.4 mph 9.2 mph 97% 0.00 in WeatherDisplay:10.37 W/m2 OVC
16:37 45.1 °F 44.3 °F 29.94 in SE 1.2 mph 9.2 mph 97% 0.00 in WeatherDisplay:10.37 W/m2 OVC
16:42 45.1 °F 44.3 °F 29.95 in SE 1.0 mph 9.2 mph 97% 0.00 in WeatherDisplay:10.37 W/m2 OVC
16:47 45.1 °F 44.3 °F 29.95 in SE 1.7 mph 9.2 mph 97% 0.00 in WeatherDisplay:10.37 W/m2 OVC
16:52 45.1 °F 44.3 °F 29.96 in SE 1.1 mph 9.2 mph 97% 0.00 in WeatherDisplay:10.37 W/m2 OVC
16:57 45.1 °F 44.3 °F 29.95 in SE 1.5 mph 9.2 mph 97% 0.00 in WeatherDisplay:10.37 W/m2 OVC
17:02 45.1 °F 44.3 °F 29.95 in SE 0.5 mph 9.2 mph 97% 0.00 in WeatherDisplay:10.37 W/m2 OVC
17:07 45.1 °F 44.3 °F 29.95 in SE 1.6 mph 9.2 mph 97% 0.00 in WeatherDisplay:10.37 W/m2 OVC
17:12 45.1 °F 44.3 °F 29.95 in SE 0.5 mph 9.2 mph 97% 0.00 in WeatherDisplay:10.37 W/m2 OVC
17:17 45.1 °F 44.3 °F 29.95 in SE 1.1 mph 9.2 mph 97% 0.00 in WeatherDisplay:10.37 W/m2 OVC
17:22 45.1 °F 44.3 °F 29.94 in SE 1.8 mph 9.2 mph 97% 0.00 in WeatherDisplay:10.37 W/m2 OVC
17:27 45.1 °F 44.3 °F 29.94 in SE 1.0 mph 9.2 mph 97% 0.00 in WeatherDisplay:10.37 W/m2 OVC
17:32 45.1 °F 44.3 °F 29.96 in SE 1.5 mph 9.2 mph 97% 0.00 in WeatherDisplay:10.37 W/m2 OVC
17:37 45.1 °F 44.3 °F 29.95 in SE 0.5 mph 9.2 mph 97% 0.00 in WeatherDisplay:10.37 W/m2 OVC
17:42 45.1 °F 44.3 °F 29.95 in Calm   9.2 mph 97% 0.00 in WeatherDisplay:10.37 W/m2 OVC
17:47 45.0 °F 44.2 °F 29.95 in SE 0.7 mph 9.2 mph 97% 0.00 in WeatherDisplay:10.37 W/m2 OVC
17:52 45.0 °F 44.2 °F 29.95 in Calm   9.2 mph 97% 0.00 in WeatherDisplay:10.37 W/m2 OVC
17:57 45.0 °F 44.2 °F 29.95 in SE 1.8 mph 9.2 mph 97% 0.00 in WeatherDisplay:10.37 W/m2 OVC
18:02 45.0 °F 44.2 °F 29.94 in SE 2.2 mph 9.2 mph 97% 0.00 in WeatherDisplay:10.37 W/m2 OVC
18:07 45.0 °F 44.2 °F 29.95 in SE 1.1 mph 9.2 mph 97% 0.00 in WeatherDisplay:10.37 W/m2 OVC
18:12 45.0 °F 44.2 °F 29.95 in SE 0.8 mph 9.2 mph 97% 0.00 in WeatherDisplay:10.37 W/m2 OVC
18:17 45.0 °F 44.2 °F 29.95 in Calm   9.2 mph 97% 0.00 in WeatherDisplay:10.37 W/m2 OVC
18:22 44.9 °F 44.1 °F 29.96 in Calm   9.2 mph 97% 0.00 in WeatherDisplay:10.37 W/m2 OVC
18:27 45.0 °F 44.2 °F 29.95 in Calm   9.2 mph 97% 0.00 in WeatherDisplay:10.37 W/m2 OVC
18:32 45.0 °F 44.2 °F 29.96 in Calm   9.2 mph 97% 0.00 in WeatherDisplay:10.37 W/m2 OVC
East Vincent, PA, USA
Compliments of Weather Underground - 3.25 mb